Search for airport 
image banner adimage banner adimage banner ad
image banner ad

KCPM - Compton/Woodley

Located in Compton, United States

ICAO - CPM, IATA - CPM

Data provided by Airmate  

General information

Coordinates: N33°53'24" W118°14'38"
Elevation is 99 feet MSL.
Magnetic variation is 14° East
View others Airports in California

Operational data

Special qualification required
Current time UTC:
Current local time:
METAR: KHHR 150753Z AUTO 00000KT 10SM CLR 18/14 A2988 RMK AO2 SLP115 T01830139 402560167
View NOTAMs / SUP AIP / TFR affecting this airport [VIEW]
Communications frequencies: [VIEW]

Runways:

RWY identifierQFULength (ft)Width (ft)SurfaceLDA (ft)
07R89°332260ASPH
25L269°332260ASPH
07L89°332360ASPH
25R269°332360ASPH

Airport contact information

Address: Compton United States

Other aviation service providers

Flight schools

Aero Squad

Aero Squad
robin@tamuseum.org+1(310)618-1155

Celebrity Helicopters, Inc

Celebrity Helicopters, Inc
robin@celebheli.com+1(877)999-2099

P3Air Classic

P3Air Classic
classic@p3air.com+1(800)201-8301

Satellite view of KCPM